sensor_id;sensor_type;location;lat;lon;timestamp;temperature;humidity
18388;DHT22;9320;50.256;19.026;2023-07-22T00:01:21;18.70;99.90
18388;DHT22;9320;50.256;19.026;2023-07-22T00:03:49;18.70;99.90
18388;DHT22;9320;50.256;19.026;2023-07-22T00:06:17;18.70;99.90
18388;DHT22;9320;50.256;19.026;2023-07-22T00:08:45;18.80;99.90
18388;DHT22;9320;50.256;19.026;2023-07-22T00:11:15;18.70;99.90
18388;DHT22;9320;50.256;19.026;2023-07-22T00:13:43;18.70;99.90
18388;DHT22;9320;50.256;19.026;2023-07-22T00:16:11;18.70;99.90
18388;DHT22;9320;50.256;19.026;2023-07-22T00:18:39;18.70;99.90
18388;DHT22;9320;50.256;19.026;2023-07-22T00:21:08;18.70;99.90
18388;DHT22;9320;50.256;19.026;2023-07-22T00:23:36;18.70;99.90
18388;DHT22;9320;50.256;19.026;2023-07-22T00:26:04;18.70;99.90
18388;DHT22;9320;50.256;19.026;2023-07-22T00:28:33;18.60;99.90
18388;DHT22;9320;50.256;19.026;2023-07-22T00:31:03;18.50;99.90
18388;DHT22;9320;50.256;19.026;2023-07-22T00:33:31;18.50;99.90
18388;DHT22;9320;50.256;19.026;2023-07-22T00:35:59;18.40;99.90
18388;DHT22;9320;50.256;19.026;2023-07-22T00:38:27;18.40;99.90
18388;DHT22;9320;50.256;19.026;2023-07-22T00:40:56;18.40;99.90
18388;DHT22;9320;50.256;19.026;2023-07-22T00:43:24;18.50;99.90
18388;DHT22;9320;50.256;19.026;2023-07-22T00:45:54;18.50;99.90
18388;DHT22;9320;50.256;19.026;2023-07-22T00:48:22;18.50;99.90
18388;DHT22;9320;50.256;19.026;2023-07-22T00:50:50;18.40;99.90
18388;DHT22;9320;50.256;19.026;2023-07-22T00:53:19;18.40;99.90
18388;DHT22;9320;50.256;19.026;2023-07-22T00:55:47;18.40;99.90
18388;DHT22;9320;50.256;19.026;2023-07-22T00:58:15;18.40;99.90
18388;DHT22;9320;50.256;19.026;2023-07-22T01:00:43;18.40;99.90
18388;DHT22;9320;50.256;19.026;2023-07-22T01:03:13;18.40;99.90
18388;DHT22;9320;50.256;19.026;2023-07-22T01:05:41;18.40;99.90
18388;DHT22;9320;50.256;19.026;2023-07-22T01:08:09;18.40;99.90
18388;DHT22;9320;50.256;19.026;2023-07-22T01:10:38;18.40;99.90
18388;DHT22;9320;50.256;19.026;2023-07-22T01:13:06;18.40;99.90
18388;DHT22;9320;50.256;19.026;2023-07-22T01:15:34;18.40;99.90
18388;DHT22;9320;50.256;19.026;2023-07-22T01:18:04;18.40;99.90
18388;DHT22;9320;50.256;19.026;2023-07-22T01:20:34;18.50;99.90
18388;DHT22;9320;50.256;19.026;2023-07-22T01:23:04;18.50;99.90
18388;DHT22;9320;50.256;19.026;2023-07-22T01:25:33;18.50;99.90
18388;DHT22;9320;50.256;19.026;2023-07-22T01:28:01;18.50;99.90
18388;DHT22;9320;50.256;19.026;2023-07-22T01:30:29;18.50;99.90
18388;DHT22;9320;50.256;19.026;2023-07-22T01:32:57;18.50;99.90
18388;DHT22;9320;50.256;19.026;2023-07-22T01:35:25;18.50;99.90
18388;DHT22;9320;50.256;19.026;2023-07-22T01:37:53;18.50;99.90
18388;DHT22;9320;50.256;19.026;2023-07-22T01:40:24;18.50;99.90
18388;DHT22;9320;50.256;19.026;2023-07-22T01:42:52;18.50;99.90
18388;DHT22;9320;50.256;19.026;2023-07-22T01:45:20;18.40;99.90
18388;DHT22;9320;50.256;19.026;2023-07-22T01:47:48;18.50;99.90
18388;DHT22;9320;50.256;19.026;2023-07-22T01:50:16;18.40;99.90
18388;DHT22;9320;50.256;19.026;2023-07-22T01:52:45;18.40;99.90
18388;DHT22;9320;50.256;19.026;2023-07-22T01:55:14;18.50;99.90
18388;DHT22;9320;50.256;19.026;2023-07-22T01:57:43;18.40;99.90
18388;DHT22;9320;50.256;19.026;2023-07-22T02:00:12;18.40;99.90
18388;DHT22;9320;50.256;19.026;2023-07-22T02:02:42;18.40;99.90
18388;DHT22;9320;50.256;19.026;2023-07-22T02:05:10;18.40;99.90
18388;DHT22;9320;50.256;19.026;2023-07-22T02:07:39;18.30;99.90
18388;DHT22;9320;50.256;19.026;2023-07-22T02:10:08;18.30;99.90
18388;DHT22;9320;50.256;19.026;2023-07-22T02:12:36;18.30;99.90
18388;DHT22;9320;50.256;19.026;2023-07-22T02:15:07;18.30;99.90
18388;DHT22;9320;50.256;19.026;2023-07-22T02:17:35;18.30;99.90
18388;DHT22;9320;50.256;19.026;2023-07-22T02:20:04;18.30;99.90
18388;DHT22;9320;50.256;19.026;2023-07-22T02:22:33;18.30;99.90
18388;DHT22;9320;50.256;19.026;2023-07-22T02:25:01;18.30;99.90
18388;DHT22;9320;50.256;19.026;2023-07-22T02:27:30;18.30;99.90
18388;DHT22;9320;50.256;19.026;2023-07-22T02:29:58;18.30;99.90
18388;DHT22;9320;50.256;19.026;2023-07-22T02:32:27;18.30;99.90
18388;DHT22;9320;50.256;19.026;2023-07-22T02:34:55;18.30;99.90
18388;DHT22;9320;50.256;19.026;2023-07-22T02:37:23;18.30;99.90
18388;DHT22;9320;50.256;19.026;2023-07-22T02:39:54;18.30;99.90
18388;DHT22;9320;50.256;19.026;2023-07-22T02:42:22;18.20;99.90
18388;DHT22;9320;50.256;19.026;2023-07-22T02:44:50;18.20;99.90
18388;DHT22;9320;50.256;19.026;2023-07-22T02:47:18;18.20;99.90
18388;DHT22;9320;50.256;19.026;2023-07-22T02:49:47;18.10;99.90
18388;DHT22;9320;50.256;19.026;2023-07-22T02:52:16;18.10;99.90
18388;DHT22;9320;50.256;19.026;2023-07-22T02:55:04;18.10;99.90
18388;DHT22;9320;50.256;19.026;2023-07-22T02:57:33;18.10;99.90
18388;DHT22;9320;50.256;19.026;2023-07-22T03:00:01;18.10;99.90
18388;DHT22;9320;50.256;19.026;2023-07-22T03:02:33;18.20;99.90
18388;DHT22;9320;50.256;19.026;2023-07-22T03:05:04;18.20;99.90
18388;DHT22;9320;50.256;19.026;2023-07-22T03:07:35;18.10;99.90
18388;DHT22;9320;50.256;19.026;2023-07-22T03:10:03;18.10;99.90
18388;DHT22;9320;50.256;19.026;2023-07-22T03:12:32;18.10;99.90
18388;DHT22;9320;50.256;19.026;2023-07-22T03:15:00;18.10;99.90
18388;DHT22;9320;50.256;19.026;2023-07-22T03:17:28;18.10;99.90
18388;DHT22;9320;50.256;19.026;2023-07-22T03:19:56;18.10;99.90
18388;DHT22;9320;50.256;19.026;2023-07-22T03:22:25;18.10;99.90
18388;DHT22;9320;50.256;19.026;2023-07-22T03:24:53;18.10;99.90
18388;DHT22;9320;50.256;19.026;2023-07-22T03:27:21;18.10;99.90
18388;DHT22;9320;50.256;19.026;2023-07-22T03:29:49;18.10;99.90
18388;DHT22;9320;50.256;19.026;2023-07-22T03:32:17;18.10;99.90
18388;DHT22;9320;50.256;19.026;2023-07-22T03:34:45;18.10;99.90
18388;DHT22;9320;50.256;19.026;2023-07-22T03:37:13;18.10;99.90
18388;DHT22;9320;50.256;19.026;2023-07-22T03:39:43;18.00;99.90
18388;DHT22;9320;50.256;19.026;2023-07-22T03:42:11;18.10;99.90
18388;DHT22;9320;50.256;19.026;2023-07-22T03:44:39;18.10;99.90
18388;DHT22;9320;50.256;19.026;2023-07-22T03:47:08;18.10;99.90
18388;DHT22;9320;50.256;19.026;2023-07-22T03:49:36;18.10;99.90
18388;DHT22;9320;50.256;19.026;2023-07-22T03:52:05;18.10;99.90
18388;DHT22;9320;50.256;19.026;2023-07-22T03:54:33;18.10;99.90
18388;DHT22;9320;50.256;19.026;2023-07-22T03:57:03;18.20;99.90
18388;DHT22;9320;50.256;19.026;2023-07-22T03:59:31;18.10;99.90
18388;DHT22;9320;50.256;19.026;2023-07-22T04:02:00;18.10;99.90
18388;DHT22;9320;50.256;19.026;2023-07-22T04:04:29;18.10;99.90
18388;DHT22;9320;50.256;19.026;2023-07-22T04:06:57;18.20;99.90
18388;DHT22;9320;50.256;19.026;2023-07-22T04:09:27;18.20;99.90
18388;DHT22;9320;50.256;19.026;2023-07-22T04:11:55;18.20;99.90
18388;DHT22;9320;50.256;19.026;2023-07-22T04:14:24;18.20;99.90
18388;DHT22;9320;50.256;19.026;2023-07-22T04:16:52;18.20;99.90
18388;DHT22;9320;50.256;19.026;2023-07-22T04:19:20;18.20;99.90
18388;DHT22;9320;50.256;19.026;2023-07-22T04:21:48;18.30;99.90
18388;DHT22;9320;50.256;19.026;2023-07-22T04:24:16;18.20;99.90
18388;DHT22;9320;50.256;19.026;2023-07-22T04:26:44;18.30;99.90
18388;DHT22;9320;50.256;19.026;2023-07-22T04:29:12;18.30;99.90
18388;DHT22;9320;50.256;19.026;2023-07-22T04:31:42;18.40;99.90
18388;DHT22;9320;50.256;19.026;2023-07-22T04:34:10;18.30;99.90
18388;DHT22;9320;50.256;19.026;2023-07-22T04:36:39;18.40;99.90
18388;DHT22;9320;50.256;19.026;2023-07-22T04:39:07;18.30;99.90
18388;DHT22;9320;50.256;19.026;2023-07-22T04:41:35;18.30;99.90
18388;DHT22;9320;50.256;19.026;2023-07-22T04:44:03;18.50;99.90
18388;DHT22;9320;50.256;19.026;2023-07-22T04:46:31;18.40;99.90
18388;DHT22;9320;50.256;19.026;2023-07-22T04:49:01;18.40;99.90
18388;DHT22;9320;50.256;19.026;2023-07-22T04:51:29;18.40;99.90
18388;DHT22;9320;50.256;19.026;2023-07-22T04:53:58;18.40;99.90
18388;DHT22;9320;50.256;19.026;2023-07-22T04:56:26;18.40;99.90
18388;DHT22;9320;50.256;19.026;2023-07-22T04:58:55;18.40;99.90
18388;DHT22;9320;50.256;19.026;2023-07-22T05:01:23;18.30;99.90
18388;DHT22;9320;50.256;19.026;2023-07-22T05:03:51;18.20;99.90
18388;DHT22;9320;50.256;19.026;2023-07-22T05:06:23;18.30;99.90
18388;DHT22;9320;50.256;19.026;2023-07-22T05:08:52;18.30;99.90
18388;DHT22;9320;50.256;19.026;2023-07-22T05:11:20;18.40;99.90
18388;DHT22;9320;50.256;19.026;2023-07-22T05:13:50;18.60;99.90
18388;DHT22;9320;50.256;19.026;2023-07-22T05:16:18;18.60;99.90
18388;DHT22;9320;50.256;19.026;2023-07-22T05:18:48;18.70;99.90
18388;DHT22;9320;50.256;19.026;2023-07-22T05:21:16;18.70;99.90
18388;DHT22;9320;50.256;19.026;2023-07-22T05:23:45;18.70;99.90
18388;DHT22;9320;50.256;19.026;2023-07-22T05:26:13;18.70;99.90
18388;DHT22;9320;50.256;19.026;2023-07-22T05:28:42;18.70;99.90
18388;DHT22;9320;50.256;19.026;2023-07-22T05:31:10;18.60;99.90
18388;DHT22;9320;50.256;19.026;2023-07-22T05:33:38;18.60;99.90
18388;DHT22;9320;50.256;19.026;2023-07-22T05:36:07;18.50;99.90
18388;DHT22;9320;50.256;19.026;2023-07-22T05:38:35;18.50;99.90
18388;DHT22;9320;50.256;19.026;2023-07-22T05:41:04;18.40;99.90
18388;DHT22;9320;50.256;19.026;2023-07-22T05:43:32;18.40;99.90
18388;DHT22;9320;50.256;19.026;2023-07-22T05:46:00;18.40;99.90
18388;DHT22;9320;50.256;19.026;2023-07-22T05:48:28;18.40;99.90
18388;DHT22;9320;50.256;19.026;2023-07-22T05:50:56;18.50;99.90
18388;DHT22;9320;50.256;19.026;2023-07-22T05:53:24;18.60;99.90
18388;DHT22;9320;50.256;19.026;2023-07-22T05:55:53;18.60;99.90
18388;DHT22;9320;50.256;19.026;2023-07-22T05:58:22;18.60;99.90
18388;DHT22;9320;50.256;19.026;2023-07-22T06:00:50;18.70;99.90
18388;DHT22;9320;50.256;19.026;2023-07-22T06:03:19;18.80;99.90
18388;DHT22;9320;50.256;19.026;2023-07-22T06:05:47;18.90;99.90
18388;DHT22;9320;50.256;19.026;2023-07-22T06:08:15;18.90;99.90
18388;DHT22;9320;50.256;19.026;2023-07-22T06:10:44;18.90;99.90
18388;DHT22;9320;50.256;19.026;2023-07-22T06:13:12;18.90;99.90
18388;DHT22;9320;50.256;19.026;2023-07-22T06:15:41;19.00;99.90
18388;DHT22;9320;50.256;19.026;2023-07-22T06:18:09;19.00;99.90
18388;DHT22;9320;50.256;19.026;2023-07-22T06:20:37;19.00;99.90
18388;DHT22;9320;50.256;19.026;2023-07-22T06:23:06;19.10;99.90
18388;DHT22;9320;50.256;19.026;2023-07-22T06:25:34;19.10;99.90
18388;DHT22;9320;50.256;19.026;2023-07-22T06:28:02;19.20;99.90
18388;DHT22;9320;50.256;19.026;2023-07-22T06:30:30;19.30;99.90
18388;DHT22;9320;50.256;19.026;2023-07-22T06:33:00;19.30;99.90
18388;DHT22;9320;50.256;19.026;2023-07-22T06:35:28;19.40;99.90
18388;DHT22;9320;50.256;19.026;2023-07-22T06:37:56;19.90;99.90
18388;DHT22;9320;50.256;19.026;2023-07-22T06:40:24;20.40;99.90
18388;DHT22;9320;50.256;19.026;2023-07-22T06:42:53;20.60;99.90
18388;DHT22;9320;50.256;19.026;2023-07-22T06:45:21;20.90;99.90
18388;DHT22;9320;50.256;19.026;2023-07-22T06:47:49;21.10;99.90
18388;DHT22;9320;50.256;19.026;2023-07-22T06:50:18;21.10;99.70
18388;DHT22;9320;50.256;19.026;2023-07-22T06:52:46;21.20;99.00
18388;DHT22;9320;50.256;19.026;2023-07-22T06:55:14;21.20;99.70
18388;DHT22;9320;50.256;19.026;2023-07-22T06:57:42;21.10;99.20
18388;DHT22;9320;50.256;19.026;2023-07-22T07:00:11;21.10;98.20
18388;DHT22;9320;50.256;19.026;2023-07-22T07:02:39;21.10;98.10
18388;DHT22;9320;50.256;19.026;2023-07-22T07:05:07;21.10;97.20
18388;DHT22;9320;50.256;19.026;2023-07-22T07:07:37;20.90;96.80
18388;DHT22;9320;50.256;19.026;2023-07-22T07:10:06;20.80;97.70
18388;DHT22;9320;50.256;19.026;2023-07-22T07:12:34;20.70;98.10
18388;DHT22;9320;50.256;19.026;2023-07-22T07:15:03;20.80;98.00
18388;DHT22;9320;50.256;19.026;2023-07-22T07:17:31;20.90;98.10
18388;DHT22;9320;50.256;19.026;2023-07-22T07:19:59;20.90;97.40
18388;DHT22;9320;50.256;19.026;2023-07-22T07:22:27;20.80;97.10
18388;DHT22;9320;50.256;19.026;2023-07-22T07:24:57;20.90;96.40
18388;DHT22;9320;50.256;19.026;2023-07-22T07:27:25;20.80;94.60
18388;DHT22;9320;50.256;19.026;2023-07-22T07:29:53;20.80;95.00
18388;DHT22;9320;50.256;19.026;2023-07-22T07:32:22;20.80;95.00
18388;DHT22;9320;50.256;19.026;2023-07-22T07:34:51;20.80;94.10
18388;DHT22;9320;50.256;19.026;2023-07-22T07:37:19;20.80;93.50
18388;DHT22;9320;50.256;19.026;2023-07-22T07:39:47;20.80;93.70
18388;DHT22;9320;50.256;19.026;2023-07-22T07:42:17;20.90;93.60
18388;DHT22;9320;50.256;19.026;2023-07-22T07:44:45;21.10;93.10
18388;DHT22;9320;50.256;19.026;2023-07-22T07:47:13;21.20;93.10
18388;DHT22;9320;50.256;19.026;2023-07-22T07:49:41;21.40;91.80
18388;DHT22;9320;50.256;19.026;2023-07-22T07:52:09;21.20;90.60
18388;DHT22;9320;50.256;19.026;2023-07-22T07:54:37;21.20;90.80
18388;DHT22;9320;50.256;19.026;2023-07-22T07:57:06;21.20;90.60
18388;DHT22;9320;50.256;19.026;2023-07-22T07:59:35;21.30;90.70
18388;DHT22;9320;50.256;19.026;2023-07-22T08:02:06;21.40;90.10
18388;DHT22;9320;50.256;19.026;2023-07-22T08:04:36;21.50;89.40
18388;DHT22;9320;50.256;19.026;2023-07-22T08:07:06;22.00;89.70
18388;DHT22;9320;50.256;19.026;2023-07-22T08:09:34;23.30;86.50
18388;DHT22;9320;50.256;19.026;2023-07-22T08:12:02;24.10;78.30
18388;DHT22;9320;50.256;19.026;2023-07-22T08:14:30;23.70;77.40
18388;DHT22;9320;50.256;19.026;2023-07-22T08:17:00;23.70;76.50
18388;DHT22;9320;50.256;19.026;2023-07-22T08:19:28;23.10;77.70
18388;DHT22;9320;50.256;19.026;2023-07-22T08:21:56;22.60;79.80
18388;DHT22;9320;50.256;19.026;2023-07-22T08:24:24;22.50;81.60
18388;DHT22;9320;50.256;19.026;2023-07-22T08:26:52;22.40;82.40
18388;DHT22;9320;50.256;19.026;2023-07-22T08:29:20;22.40;82.10
18388;DHT22;9320;50.256;19.026;2023-07-22T08:31:48;22.70;83.10
18388;DHT22;9320;50.256;19.026;2023-07-22T08:34:17;23.10;79.70
18388;DHT22;9320;50.256;19.026;2023-07-22T08:36:45;23.00;78.40
18388;DHT22;9320;50.256;19.026;2023-07-22T08:39:13;22.70;79.90
18388;DHT22;9320;50.256;19.026;2023-07-22T08:41:47;22.80;79.40
18388;DHT22;9320;50.256;19.026;2023-07-22T08:44:19;22.70;79.40
18388;DHT22;9320;50.256;19.026;2023-07-22T08:46:55;22.70;79.70
18388;DHT22;9320;50.256;19.026;2023-07-22T08:49:26;23.00;79.70
18388;DHT22;9320;50.256;19.026;2023-07-22T08:51:55;23.50;77.90
18388;DHT22;9320;50.256;19.026;2023-07-22T08:54:24;23.80;76.20
18388;DHT22;9320;50.256;19.026;2023-07-22T08:56:53;24.40;75.40
18388;DHT22;9320;50.256;19.026;2023-07-22T08:59:21;24.50;73.50
18388;DHT22;9320;50.256;19.026;2023-07-22T09:01:50;24.60;72.70
18388;DHT22;9320;50.256;19.026;2023-07-22T09:04:19;25.90;71.80
18388;DHT22;9320;50.256;19.026;2023-07-22T09:06:48;27.30;68.40
18388;DHT22;9320;50.256;19.026;2023-07-22T09:09:17;27.90;63.50
18388;DHT22;9320;50.256;19.026;2023-07-22T09:11:45;28.60;60.40
18388;DHT22;9320;50.256;19.026;2023-07-22T09:14:15;28.80;59.90
18388;DHT22;9320;50.256;19.026;2023-07-22T09:17:01;28.10;59.60
18388;DHT22;9320;50.256;19.026;2023-07-22T09:19:30;26.90;61.60
18388;DHT22;9320;50.256;19.026;2023-07-22T09:21:59;26.40;64.10
18388;DHT22;9320;50.256;19.026;2023-07-22T09:24:27;26.20;64.40
18388;DHT22;9320;50.256;19.026;2023-07-22T09:26:57;26.10;63.60
18388;DHT22;9320;50.256;19.026;2023-07-22T09:29:36;25.70;64.10
18388;DHT22;9320;50.256;19.026;2023-07-22T09:32:05;25.10;66.20
18388;DHT22;9320;50.256;19.026;2023-07-22T09:34:34;25.00;66.40
18388;DHT22;9320;50.256;19.026;2023-07-22T09:37:04;25.20;65.80
18388;DHT22;9320;50.256;19.026;2023-07-22T09:39:32;25.80;65.30
18388;DHT22;9320;50.256;19.026;2023-07-22T09:42:03;26.40;64.40
18388;DHT22;9320;50.256;19.026;2023-07-22T09:44:32;27.50;60.30
18388;DHT22;9320;50.256;19.026;2023-07-22T09:47:06;29.30;57.60
18388;DHT22;9320;50.256;19.026;2023-07-22T09:49:40;30.40;55.50
18388;DHT22;9320;50.256;19.026;2023-07-22T09:52:11;31.70;51.80
18388;DHT22;9320;50.256;19.026;2023-07-22T09:54:47;32.70;48.90
18388;DHT22;9320;50.256;19.026;2023-07-22T09:57:17;33.00;49.40
18388;DHT22;9320;50.256;19.026;2023-07-22T09:59:47;35.00;45.80
18388;DHT22;9320;50.256;19.026;2023-07-22T10:02:18;37.20;42.30
18388;DHT22;9320;50.256;19.026;2023-07-22T10:04:47;38.80;39.20
18388;DHT22;9320;50.256;19.026;2023-07-22T10:07:18;36.80;39.60
18388;DHT22;9320;50.256;19.026;2023-07-22T10:09:47;34.00;42.10
18388;DHT22;9320;50.256;19.026;2023-07-22T10:12:15;34.40;45.10
18388;DHT22;9320;50.256;19.026;2023-07-22T10:14:45;35.30;42.40
18388;DHT22;9320;50.256;19.026;2023-07-22T10:17:13;34.10;41.50
18388;DHT22;9320;50.256;19.026;2023-07-22T10:19:44;35.30;42.40
18388;DHT22;9320;50.256;19.026;2023-07-22T10:22:12;38.80;38.20
18388;DHT22;9320;50.256;19.026;2023-07-22T10:24:43;42.20;33.90
18388;DHT22;9320;50.256;19.026;2023-07-22T10:27:13;44.10;31.70
18388;DHT22;9320;50.256;19.026;2023-07-22T10:29:41;45.50;30.10
18388;DHT22;9320;50.256;19.026;2023-07-22T10:32:11;45.80;29.30
18388;DHT22;9320;50.256;19.026;2023-07-22T10:34:39;45.50;29.10
18388;DHT22;9320;50.256;19.026;2023-07-22T10:37:09;42.60;30.70
18388;DHT22;9320;50.256;19.026;2023-07-22T10:39:37;40.20;33.20
18388;DHT22;9320;50.256;19.026;2023-07-22T10:42:07;38.10;33.90
18388;DHT22;9320;50.256;19.026;2023-07-22T10:44:36;35.50;37.50
18388;DHT22;9320;50.256;19.026;2023-07-22T10:47:05;33.60;40.30
18388;DHT22;9320;50.256;19.026;2023-07-22T10:49:44;32.00;42.80
18388;DHT22;9320;50.256;19.026;2023-07-22T10:52:13;30.90;44.90
18388;DHT22;9320;50.256;19.026;2023-07-22T10:54:41;29.80;46.50
18388;DHT22;9320;50.256;19.026;2023-07-22T10:57:28;28.80;48.60
18388;DHT22;9320;50.256;19.026;2023-07-22T10:59:57;27.80;49.50
18388;DHT22;9320;50.256;19.026;2023-07-22T11:02:25;27.10;51.00
18388;DHT22;9320;50.256;19.026;2023-07-22T11:04:56;27.00;52.10
18388;DHT22;9320;50.256;19.026;2023-07-22T11:07:33;26.90;50.80
18388;DHT22;9320;50.256;19.026;2023-07-22T11:10:13;26.70;50.40
18388;DHT22;9320;50.256;19.026;2023-07-22T11:12:42;26.50;50.40
18388;DHT22;9320;50.256;19.026;2023-07-22T11:15:11;26.50;50.70
18388;DHT22;9320;50.256;19.026;2023-07-22T11:17:42;26.60;50.80
18388;DHT22;9320;50.256;19.026;2023-07-22T11:20:10;26.70;51.00
18388;DHT22;9320;50.256;19.026;2023-07-22T11:22:39;26.80;50.60
18388;DHT22;9320;50.256;19.026;2023-07-22T11:25:08;26.60;51.30
18388;DHT22;9320;50.256;19.026;2023-07-22T11:27:36;26.20;51.60
18388;DHT22;9320;50.256;19.026;2023-07-22T11:30:07;25.90;52.10
18388;DHT22;9320;50.256;19.026;2023-07-22T11:32:42;25.80;52.60
18388;DHT22;9320;50.256;19.026;2023-07-22T11:35:10;25.80;52.20
18388;DHT22;9320;50.256;19.026;2023-07-22T11:37:38;25.70;52.40
18388;DHT22;9320;50.256;19.026;2023-07-22T11:40:11;25.70;52.70
18388;DHT22;9320;50.256;19.026;2023-07-22T11:42:39;25.80;52.30
18388;DHT22;9320;50.256;19.026;2023-07-22T11:45:09;25.80;52.40
18388;DHT22;9320;50.256;19.026;2023-07-22T11:47:38;25.60;52.50
18388;DHT22;9320;50.256;19.026;2023-07-22T11:50:07;25.60;53.00
18388;DHT22;9320;50.256;19.026;2023-07-22T11:52:35;25.40;53.10
18388;DHT22;9320;50.256;19.026;2023-07-22T11:55:04;25.40;53.50
18388;DHT22;9320;50.256;19.026;2023-07-22T11:57:32;25.20;54.10
18388;DHT22;9320;50.256;19.026;2023-07-22T12:00:00;25.10;54.40
18388;DHT22;9320;50.256;19.026;2023-07-22T12:02:29;25.20;54.40
18388;DHT22;9320;50.256;19.026;2023-07-22T12:05:00;25.30;54.90
18388;DHT22;9320;50.256;19.026;2023-07-22T12:07:30;25.50;54.20
18388;DHT22;9320;50.256;19.026;2023-07-22T12:09:59;25.60;53.90
18388;DHT22;9320;50.256;19.026;2023-07-22T12:12:34;25.90;53.10
18388;DHT22;9320;50.256;19.026;2023-07-22T12:15:04;25.90;52.90
18388;DHT22;9320;50.256;19.026;2023-07-22T12:17:45;25.90;53.10
18388;DHT22;9320;50.256;19.026;2023-07-22T12:20:14;25.90;52.70
18388;DHT22;9320;50.256;19.026;2023-07-22T12:22:43;25.80;53.10
18388;DHT22;9320;50.256;19.026;2023-07-22T12:25:11;25.80;53.50
18388;DHT22;9320;50.256;19.026;2023-07-22T12:27:39;25.80;53.60
18388;DHT22;9320;50.256;19.026;2023-07-22T12:30:08;25.70;53.40
18388;DHT22;9320;50.256;19.026;2023-07-22T12:32:36;25.80;54.00
18388;DHT22;9320;50.256;19.026;2023-07-22T12:35:06;26.00;53.50
18388;DHT22;9320;50.256;19.026;2023-07-22T12:37:35;25.90;53.20
18388;DHT22;9320;50.256;19.026;2023-07-22T12:40:03;25.90;53.40
18388;DHT22;9320;50.256;19.026;2023-07-22T12:42:35;26.00;53.30
18388;DHT22;9320;50.256;19.026;2023-07-22T12:45:04;26.00;53.80
18388;DHT22;9320;50.256;19.026;2023-07-22T12:47:33;25.90;54.00
18388;DHT22;9320;50.256;19.026;2023-07-22T12:50:01;25.80;54.60
18388;DHT22;9320;50.256;19.026;2023-07-22T12:52:30;25.80;54.50
18388;DHT22;9320;50.256;19.026;2023-07-22T12:54:58;25.90;54.60
18388;DHT22;9320;50.256;19.026;2023-07-22T12:57:26;26.00;54.30
18388;DHT22;9320;50.256;19.026;2023-07-22T12:59:54;26.00;54.30
18388;DHT22;9320;50.256;19.026;2023-07-22T13:02:22;25.80;54.50
18388;DHT22;9320;50.256;19.026;2023-07-22T13:04:52;25.50;55.00
18388;DHT22;9320;50.256;19.026;2023-07-22T13:07:20;25.20;55.30
18388;DHT22;9320;50.256;19.026;2023-07-22T13:09:50;25.30;55.20
18388;DHT22;9320;50.256;19.026;2023-07-22T13:12:20;25.30;55.60
18388;DHT22;9320;50.256;19.026;2023-07-22T13:14:48;25.30;56.00
18388;DHT22;9320;50.256;19.026;2023-07-22T13:17:16;25.50;55.70
18388;DHT22;9320;50.256;19.026;2023-07-22T13:19:44;25.60;55.60
18388;DHT22;9320;50.256;19.026;2023-07-22T13:22:12;25.60;55.50
18388;DHT22;9320;50.256;19.026;2023-07-22T13:24:40;25.40;55.80
18388;DHT22;9320;50.256;19.026;2023-07-22T13:27:09;25.30;56.30
18388;DHT22;9320;50.256;19.026;2023-07-22T13:29:37;25.50;56.10
18388;DHT22;9320;50.256;19.026;2023-07-22T13:32:06;25.50;55.00
18388;DHT22;9320;50.256;19.026;2023-07-22T13:34:34;25.50;54.10
18388;DHT22;9320;50.256;19.026;2023-07-22T13:37:03;25.50;53.20
18388;DHT22;9320;50.256;19.026;2023-07-22T13:39:31;25.50;52.70
18388;DHT22;9320;50.256;19.026;2023-07-22T13:41:59;25.40;53.10
18388;DHT22;9320;50.256;19.026;2023-07-22T13:44:28;25.50;53.30
18388;DHT22;9320;50.256;19.026;2023-07-22T13:46:56;25.60;53.30
18388;DHT22;9320;50.256;19.026;2023-07-22T13:49:24;25.50;53.60
18388;DHT22;9320;50.256;19.026;2023-07-22T13:51:52;25.40;52.90
18388;DHT22;9320;50.256;19.026;2023-07-22T13:54:20;25.50;53.30
18388;DHT22;9320;50.256;19.026;2023-07-22T13:56:48;25.70;52.90
18388;DHT22;9320;50.256;19.026;2023-07-22T13:59:16;25.80;52.60
18388;DHT22;9320;50.256;19.026;2023-07-22T14:01:46;25.60;52.90
18388;DHT22;9320;50.256;19.026;2023-07-22T14:04:14;25.40;53.90
18388;DHT22;9320;50.256;19.026;2023-07-22T14:06:42;25.30;53.80
18388;DHT22;9320;50.256;19.026;2023-07-22T14:09:10;25.30;53.30
18388;DHT22;9320;50.256;19.026;2023-07-22T14:11:38;25.20;52.30
18388;DHT22;9320;50.256;19.026;2023-07-22T14:14:08;25.10;52.90
18388;DHT22;9320;50.256;19.026;2023-07-22T14:16:36;25.10;53.50
18388;DHT22;9320;50.256;19.026;2023-07-22T14:19:05;25.10;53.70
18388;DHT22;9320;50.256;19.026;2023-07-22T14:21:34;25.10;54.10
18388;DHT22;9320;50.256;19.026;2023-07-22T14:24:02;25.00;54.20
18388;DHT22;9320;50.256;19.026;2023-07-22T14:26:31;25.20;54.20
18388;DHT22;9320;50.256;19.026;2023-07-22T14:28:59;25.30;53.80
18388;DHT22;9320;50.256;19.026;2023-07-22T14:31:27;25.40;53.50
18388;DHT22;9320;50.256;19.026;2023-07-22T14:33:56;25.40;52.30
18388;DHT22;9320;50.256;19.026;2023-07-22T14:36:25;25.20;51.10
18388;DHT22;9320;50.256;19.026;2023-07-22T14:38:53;25.00;51.40
18388;DHT22;9320;50.256;19.026;2023-07-22T14:41:22;24.80;51.80
18388;DHT22;9320;50.256;19.026;2023-07-22T14:43:51;24.80;51.90
18388;DHT22;9320;50.256;19.026;2023-07-22T14:46:20;25.00;50.90
18388;DHT22;9320;50.256;19.026;2023-07-22T14:48:48;25.00;51.40
18388;DHT22;9320;50.256;19.026;2023-07-22T14:51:16;25.10;51.00
18388;DHT22;9320;50.256;19.026;2023-07-22T14:53:45;25.00;51.40
18388;DHT22;9320;50.256;19.026;2023-07-22T14:56:13;24.80;51.50
18388;DHT22;9320;50.256;19.026;2023-07-22T14:58:41;24.80;51.50
18388;DHT22;9320;50.256;19.026;2023-07-22T15:01:10;24.90;51.00
18388;DHT22;9320;50.256;19.026;2023-07-22T15:03:38;24.90;50.50
18388;DHT22;9320;50.256;19.026;2023-07-22T15:06:06;24.80;50.20
18388;DHT22;9320;50.256;19.026;2023-07-22T15:08:34;24.90;49.90
18388;DHT22;9320;50.256;19.026;2023-07-22T15:11:04;25.00;49.70
18388;DHT22;9320;50.256;19.026;2023-07-22T15:13:32;25.00;50.20
18388;DHT22;9320;50.256;19.026;2023-07-22T15:16:00;25.00;50.00
18388;DHT22;9320;50.256;19.026;2023-07-22T15:18:28;25.10;50.10
18388;DHT22;9320;50.256;19.026;2023-07-22T15:20:56;25.20;50.00
18388;DHT22;9320;50.256;19.026;2023-07-22T15:23:24;25.20;49.00
18388;DHT22;9320;50.256;19.026;2023-07-22T15:25:52;25.10;48.90
18388;DHT22;9320;50.256;19.026;2023-07-22T15:28:21;25.00;48.70
18388;DHT22;9320;50.256;19.026;2023-07-22T15:30:49;24.80;48.90
18388;DHT22;9320;50.256;19.026;2023-07-22T15:33:17;24.80;49.20
18388;DHT22;9320;50.256;19.026;2023-07-22T15:35:45;24.80;49.20
18388;DHT22;9320;50.256;19.026;2023-07-22T15:38:13;25.00;48.90
18388;DHT22;9320;50.256;19.026;2023-07-22T15:40:41;25.00;47.90